Time;durP1;ratioP1;P1;durP2;ratioP2;P2;SDS_P1;SDS_P2;PMS_P1;PMS_P2;Temp;Humidity;BMP_temperature;BMP_pressure;BME280_temperature;BME280_humidity;BME280_pressure;Samples;Min_cycle;Max_cycle;Signal;HPM_P1;HPM_P2
2021/11/03 00:00:33;;;;;;;27.67;18.70;;;5.50;99.90;;;;;;5025398;28;20335;-75
2021/11/03 00:03:00;;;;;;;34.25;19.20;;;5.50;99.90;;;;;;5042432;28;20228;-76
2021/11/03 00:05:27;;;;;;;28.63;18.02;;;5.50;99.90;;;;;;5023258;28;20040;-76
2021/11/03 00:07:55;;;;;;;26.92;17.73;;;5.50;99.90;;;;;;5041312;28;20096;-76
2021/11/03 00:10:21;;;;;;;28.90;18.10;;;5.50;99.90;;;;;;5042158;28;20359;-75
2021/11/03 00:12:47;;;;;;;29.77;16.92;;;5.60;99.90;;;;;;5042966;28;20295;-76
2021/11/03 00:15:13;;;;;;;22.92;16.65;;;5.50;99.90;;;;;;5024395;28;20026;-77
2021/11/03 00:17:39;;;;;;;23.83;15.80;;;5.40;99.90;;;;;;5041871;28;20029;-76
2021/11/03 00:20:07;;;;;;;24.48;16.10;;;5.30;99.90;;;;;;5042620;28;20029;-77
2021/11/03 00:22:34;;;;;;;25.10;15.55;;;5.20;99.90;;;;;;5041560;28;20024;-76
2021/11/03 00:25:00;;;;;;;23.25;15.60;;;5.10;99.90;;;;;;5039660;28;20029;-76
2021/11/03 00:27:26;;;;;;;28.92;16.17;;;5.10;99.90;;;;;;5009800;28;20029;-76
2021/11/03 00:29:52;;;;;;;28.00;15.30;;;5.10;99.90;;;;;;5041997;28;20111;-76
2021/11/03 00:32:18;;;;;;;24.77;16.75;;;5.00;99.90;;;;;;5043311;28;20236;-76
2021/11/03 00:34:44;;;;;;;22.67;15.15;;;5.00;99.90;;;;;;5043213;28;20053;-76
2021/11/03 00:37:10;;;;;;;21.55;15.40;;;5.10;99.90;;;;;;5036783;28;20087;-76
2021/11/03 00:39:37;;;;;;;24.65;16.10;;;5.00;99.90;;;;;;5041748;28;20371;-76
2021/11/03 00:42:03;;;;;;;21.63;15.27;;;5.00;99.90;;;;;;5041082;28;20111;-76
2021/11/03 00:44:29;;;;;;;28.60;16.98;;;4.90;99.90;;;;;;5025504;28;20037;-76
2021/11/03 00:46:55;;;;;;;25.98;17.23;;;4.80;99.90;;;;;;5042530;28;20028;-76
2021/11/03 00:49:21;;;;;;;32.85;17.73;;;4.80;99.90;;;;;;5042751;28;20040;-77
2021/11/03 00:51:47;;;;;;;25.67;17.48;;;4.80;99.90;;;;;;5039346;28;20033;-76
2021/11/03 00:54:13;;;;;;;28.15;18.25;;;4.90;99.90;;;;;;5041431;28;20085;-76
2021/11/03 00:56:39;;;;;;;28.85;18.95;;;4.90;99.90;;;;;;5041570;28;20263;-76
2021/11/03 00:59:04;;;;;;;26.40;17.00;;;4.90;99.90;;;;;;5042846;28;20043;-76
2021/11/03 01:01:31;;;;;;;26.38;16.65;;;5.00;99.90;;;;;;5040133;28;20298;-77
2021/11/03 01:03:57;;;;;;;27.63;17.08;;;5.00;99.90;;;;;;5025913;28;20029;-76
2021/11/03 01:06:23;;;;;;;25.75;16.15;;;5.00;99.90;;;;;;5039951;28;20044;-77
2021/11/03 01:08:49;;;;;;;26.27;16.48;;;5.00;99.90;;;;;;5040959;28;20035;-77
2021/11/03 01:11:15;;;;;;;28.08;16.08;;;5.00;99.90;;;;;;5043179;28;20036;-76
2021/11/03 01:13:41;;;;;;;26.83;16.20;;;4.90;99.90;;;;;;5042611;28;20024;-77
2021/11/03 01:16:07;;;;;;;25.15;15.73;;;4.90;99.90;;;;;;5041431;28;20051;-76
2021/11/03 01:18:33;;;;;;;25.70;15.18;;;4.90;99.90;;;;;;5024239;28;20366;-76
2021/11/03 01:21:00;;;;;;;21.30;14.55;;;4.90;99.90;;;;;;5041598;28;20028;-76
2021/11/03 01:23:27;;;;;;;25.85;16.13;;;4.80;99.90;;;;;;5041814;28;20446;-76
2021/11/03 01:25:52;;;;;;;29.58;15.93;;;4.90;99.90;;;;;;5038911;28;20422;-76
2021/11/03 01:28:20;;;;;;;25.52;15.90;;;4.90;99.90;;;;;;5039972;28;20052;-77
2021/11/03 01:30:47;;;;;;;26.17;16.17;;;4.90;99.90;;;;;;5039926;28;20052;-75
2021/11/03 01:33:15;;;;;;;37.42;17.90;;;4.90;99.90;;;;;;5040490;28;20329;-75
2021/11/03 01:35:41;;;;;;;24.95;16.50;;;4.90;99.90;;;;;;5038677;28;20583;-76
2021/11/03 01:38:07;;;;;;;23.35;16.90;;;4.80;99.90;;;;;;5039972;28;20076;-76
2021/11/03 01:40:35;;;;;;;25.13;15.90;;;4.80;99.90;;;;;;5040241;28;20262;-77
2021/11/03 01:43:02;;;;;;;28.55;17.30;;;4.70;99.90;;;;;;5039510;28;20021;-77
2021/11/03 01:45:30;;;;;;;29.33;18.65;;;4.80;99.90;;;;;;5039855;28;20363;-77
2021/11/03 01:47:59;;;;;;;26.90;17.58;;;4.80;99.90;;;;;;5040169;28;20209;-76
2021/11/03 01:50:27;;;;;;;37.20;18.63;;;4.90;99.90;;;;;;5041337;28;20056;-76
2021/11/03 01:53:21;;;;;;;26.70;16.35;;;4.90;99.90;;;;;;5039866;28;20223;-76
2021/11/03 01:56:07;;;;;;;25.25;17.17;;;5.00;99.90;;;;;;5039327;28;20048;-76
2021/11/03 01:58:43;;;;;;;32.53;16.83;;;4.90;99.90;;;;;;5040756;28;20406;-76
2021/11/03 02:01:10;;;;;;;28.63;16.63;;;4.90;99.90;;;;;;5041379;28;20095;-77
2021/11/03 02:03:36;;;;;;;30.67;17.60;;;4.80;99.90;;;;;;5041311;28;20358;-76
2021/11/03 02:06:11;;;;;;;32.72;17.58;;;4.70;99.90;;;;;;5037616;28;20033;-75
2021/11/03 02:08:40;;;;;;;29.00;16.17;;;4.70;99.90;;;;;;5039250;28;20025;-76
2021/11/03 02:11:06;;;;;;;23.63;15.57;;;4.80;99.90;;;;;;5040958;28;20040;-76
2021/11/03 02:13:34;;;;;;;28.98;16.80;;;4.60;99.90;;;;;;5020860;28;20058;-76
2021/11/03 02:16:00;;;;;;;26.67;16.80;;;4.60;99.90;;;;;;5038662;28;20324;-77
2021/11/03 02:18:26;;;;;;;29.13;16.10;;;4.60;99.90;;;;;;5040982;28;20045;-76
2021/11/03 02:20:53;;;;;;;24.88;15.80;;;4.60;99.90;;;;;;5040994;28;20096;-76
2021/11/03 02:23:50;;;;;;;22.90;15.02;;;4.60;99.90;;;;;;5039230;28;20032;-76
2021/11/03 02:26:43;;;;;;;26.73;16.13;;;4.60;99.90;;;;;;5038728;28;20026;-77
2021/11/03 02:29:12;;;;;;;23.90;15.10;;;4.60;99.90;;;;;;5037789;28;20108;-75
2021/11/03 02:31:46;;;;;;;29.20;16.40;;;4.60;99.90;;;;;;5039497;28;20338;-76
2021/11/03 02:34:19;;;;;;;29.05;16.85;;;4.50;99.90;;;;;;5036331;28;20095;-76
2021/11/03 02:37:21;;;;;;;31.38;16.38;;;4.50;99.90;;;;;;5039738;28;20049;-76
2021/11/03 02:39:53;;;;;;;27.30;15.75;;;4.50;99.90;;;;;;5001814;28;20053;-77
2021/11/03 02:42:19;;;;;;;25.05;15.30;;;4.50;99.90;;;;;;5040023;28;20044;-76
2021/11/03 02:44:47;;;;;;;25.13;15.35;;;4.50;99.90;;;;;;5038712;28;20020;-76
2021/11/03 02:47:13;;;;;;;28.95;16.27;;;4.50;99.90;;;;;;5041353;28;20358;-76
2021/11/03 02:49:40;;;;;;;27.75;15.88;;;4.50;99.90;;;;;;5043131;28;20025;-76
2021/11/03 02:52:15;;;;;;;26.02;14.98;;;4.50;99.90;;;;;;5045314;28;20036;-76
2021/11/03 02:54:41;;;;;;;25.73;16.70;;;4.50;99.90;;;;;;5044002;28;20282;-75
2021/11/03 02:57:07;;;;;;;23.90;14.93;;;4.40;99.90;;;;;;5041655;28;20351;-76
2021/11/03 02:59:33;;;;;;;21.73;14.35;;;4.40;99.90;;;;;;5044111;28;20066;-76
2021/11/03 03:02:01;;;;;;;28.20;16.45;;;4.40;99.90;;;;;;5025893;28;20025;-76
2021/11/03 03:04:37;;;;;;;23.27;14.77;;;4.30;99.90;;;;;;5040845;28;20376;-75
2021/11/03 03:07:04;;;;;;;29.40;16.83;;;4.30;99.90;;;;;;5042368;28;20033;-76
2021/11/03 03:09:30;;;;;;;26.73;15.77;;;4.30;99.90;;;;;;5043008;28;20036;-76
2021/11/03 03:12:00;;;;;;;25.00;14.98;;;4.40;99.90;;;;;;5042435;28;20032;-77
2021/11/03 03:14:29;;;;;;;26.63;16.02;;;4.30;99.90;;;;;;5043621;28;20032;-77
2021/11/03 03:16:56;;;;;;;30.85;16.55;;;4.20;99.90;;;;;;5044139;28;20119;-76
2021/11/03 03:19:21;;;;;;;27.80;15.65;;;4.20;99.90;;;;;;5045533;28;20064;-76
2021/11/03 03:21:47;;;;;;;25.27;15.43;;;4.20;99.90;;;;;;5024801;28;20059;-77
2021/11/03 03:24:15;;;;;;;28.80;17.15;;;4.20;99.90;;;;;;5043723;28;20041;-77
2021/11/03 03:26:42;;;;;;;33.20;16.77;;;4.20;99.90;;;;;;5043566;28;20029;-76
2021/11/03 03:29:09;;;;;;;32.30;17.48;;;4.20;99.90;;;;;;5045410;28;20226;-77
2021/11/03 03:31:36;;;;;;;33.22;16.92;;;4.20;99.90;;;;;;5045072;28;20350;-76
2021/11/03 03:34:06;;;;;;;28.95;16.23;;;4.20;99.90;;;;;;5041660;28;20040;-76
2021/11/03 03:36:32;;;;;;;32.65;17.55;;;4.20;99.90;;;;;;5043329;28;20076;-76
2021/11/03 03:38:59;;;;;;;30.70;17.83;;;4.20;99.90;;;;;;5040251;28;20041;-76
2021/11/03 03:41:27;;;;;;;28.20;17.08;;;4.30;99.90;;;;;;5025164;28;20148;-76
2021/11/03 03:43:53;;;;;;;32.08;17.58;;;4.30;99.90;;;;;;5042503;28;20276;-77
2021/11/03 03:46:20;;;;;;;31.77;17.13;;;4.30;99.90;;;;;;5042422;28;20358;-76
2021/11/03 03:48:46;;;;;;;29.98;16.55;;;4.30;99.90;;;;;;5043179;28;20320;-76
2021/11/03 03:51:12;;;;;;;30.73;17.35;;;4.20;99.90;;;;;;5042339;28;20265;-75
2021/11/03 03:53:39;;;;;;;34.33;18.45;;;4.20;99.90;;;;;;5026033;28;20262;-76
2021/11/03 03:56:06;;;;;;;27.75;17.15;;;4.10;99.90;;;;;;5043407;28;20060;-77
2021/11/03 03:58:32;;;;;;;26.52;15.77;;;4.10;99.90;;;;;;5028633;28;20287;-76
2021/11/03 04:00:59;;;;;;;26.65;16.30;;;4.10;99.90;;;;;;5042902;28;20036;-76
2021/11/03 04:03:24;;;;;;;29.38;16.90;;;4.10;99.90;;;;;;5042852;28;20151;-76
2021/11/03 04:05:50;;;;;;;29.80;16.50;;;4.00;99.90;;;;;;5043862;28;20053;-76
2021/11/03 04:08:19;;;;;;;30.17;18.23;;;4.00;99.90;;;;;;5043304;28;20033;-76
2021/11/03 04:10:46;;;;;;;32.17;18.20;;;3.90;99.90;;;;;;5043005;28;20045;-77
2021/11/03 04:13:12;;;;;;;33.38;19.70;;;4.00;99.90;;;;;;5040756;28;20043;-77
2021/11/03 04:15:38;;;;;;;37.55;18.35;;;4.00;99.90;;;;;;5041484;28;20051;-77
2021/11/03 04:18:05;;;;;;;29.45;16.95;;;4.00;99.90;;;;;;5033504;28;20029;-77
2021/11/03 04:20:31;;;;;;;32.30;17.67;;;4.00;99.90;;;;;;5037370;28;20021;-76
2021/11/03 04:22:57;;;;;;;30.80;16.77;;;3.90;99.90;;;;;;5040408;28;20084;-77
2021/11/03 04:25:23;;;;;;;27.77;17.05;;;3.90;99.90;;;;;;5038807;28;20059;-77
2021/11/03 04:27:49;;;;;;;33.92;19.15;;;3.90;99.90;;;;;;5038796;28;20101;-77
2021/11/03 04:30:18;;;;;;;27.27;17.40;;;3.80;99.90;;;;;;5039519;28;20032;-76
2021/11/03 04:32:44;;;;;;;33.63;18.90;;;3.90;99.90;;;;;;5035672;28;20205;-77
2021/11/03 04:35:11;;;;;;;32.10;17.27;;;3.80;99.90;;;;;;5034718;28;20029;-76
2021/11/03 04:37:38;;;;;;;28.58;16.90;;;3.90;99.90;;;;;;5037211;28;20259;-76
2021/11/03 04:40:07;;;;;;;29.48;18.17;;;3.90;99.90;;;;;;5037864;28;20054;-78
2021/11/03 04:42:33;;;;;;;29.57;17.70;;;3.90;99.90;;;;;;5039540;28;20025;-77
2021/11/03 04:44:59;;;;;;;39.85;20.90;;;3.90;99.90;;;;;;5037145;28;20029;-77
2021/11/03 04:47:25;;;;;;;36.75;20.48;;;4.00;99.90;;;;;;5038666;28;20081;-77
2021/11/03 04:49:51;;;;;;;39.72;28.73;;;3.90;99.90;;;;;;5036514;28;20035;-76
2021/11/03 04:52:17;;;;;;;37.08;20.02;;;3.90;99.90;;;;;;5036757;28;20029;-77
2021/11/03 04:54:43;;;;;;;40.20;20.20;;;4.10;99.90;;;;;;5040298;28;20385;-75
2021/11/03 04:57:17;;;;;;;39.60;20.98;;;4.20;99.90;;;;;;5038329;28;20083;-77
2021/11/03 04:59:45;;;;;;;38.00;24.75;;;4.30;99.90;;;;;;5035604;28;20127;-75
2021/11/03 05:02:14;;;;;;;38.80;21.42;;;4.30;99.90;;;;;;5034181;28;20392;-76
2021/11/03 05:04:41;;;;;;;41.28;27.45;;;4.30;99.90;;;;;;5041338;28;20029;-76
2021/11/03 05:07:08;;;;;;;42.10;25.50;;;4.30;99.90;;;;;;5041986;28;20129;-76
2021/11/03 05:09:34;;;;;;;36.22;26.77;;;4.40;99.90;;;;;;5042336;28;20252;-77
2021/11/03 05:12:00;;;;;;;44.30;26.88;;;4.30;99.90;;;;;;5040458;28;20162;-77
2021/11/03 05:14:26;;;;;;;36.10;21.92;;;4.30;99.90;;;;;;5042359;28;20026;-76
2021/11/03 05:16:52;;;;;;;34.83;22.55;;;4.20;99.90;;;;;;5032146;28;20048;-76
2021/11/03 05:19:24;;;;;;;38.85;21.83;;;4.20;99.90;;;;;;5036331;28;20037;-76
2021/11/03 05:21:52;;;;;;;32.90;20.17;;;4.30;99.90;;;;;;5036459;28;20029;-77
2021/11/03 05:24:19;;;;;;;38.92;23.38;;;4.20;99.90;;;;;;5038196;28;20515;-77
2021/11/03 05:26:45;;;;;;;38.97;22.40;;;4.20;99.90;;;;;;5033600;28;20487;-77
2021/11/03 05:29:12;;;;;;;32.58;20.10;;;4.20;99.90;;;;;;5037591;28;20025;-77
2021/11/03 05:31:38;;;;;;;39.75;21.10;;;4.20;99.90;;;;;;5034307;28;20021;-76
2021/11/03 05:34:04;;;;;;;32.78;19.77;;;4.10;99.90;;;;;;5032090;28;20240;-77
2021/11/03 05:36:30;;;;;;;35.80;20.80;;;4.00;99.90;;;;;;5034021;28;20052;-77
2021/11/03 05:38:59;;;;;;;35.22;19.67;;;3.90;99.90;;;;;;5035567;28;20045;-76
2021/11/03 05:41:25;;;;;;;39.55;21.00;;;3.90;99.90;;;;;;5038541;28;20052;-77
2021/11/03 05:43:51;;;;;;;54.22;23.30;;;3.90;99.90;;;;;;5038852;28;20040;-76
2021/11/03 05:46:23;;;;;;;41.63;25.33;;;3.80;99.90;;;;;;5040022;28;20028;-77
2021/11/03 05:48:50;;;;;;;39.75;22.20;;;3.90;99.90;;;;;;5038367;28;20032;-76
2021/11/03 05:51:17;;;;;;;32.30;19.27;;;3.80;99.90;;;;;;5040415;28;20025;-77
2021/11/03 05:53:43;;;;;;;40.15;22.63;;;3.80;99.90;;;;;;5042366;28;20128;-76
2021/11/03 05:56:10;;;;;;;39.63;22.63;;;3.80;99.90;;;;;;5039256;28;20091;-77
2021/11/03 05:58:36;;;;;;;37.22;22.40;;;3.70;99.90;;;;;;5040759;28;20366;-77
2021/11/03 06:01:03;;;;;;;41.13;21.27;;;3.70;99.90;;;;;;5039537;28;20401;-76
2021/11/03 06:03:29;;;;;;;40.88;22.63;;;3.70;99.90;;;;;;5041247;28;20029;-76
2021/11/03 06:05:55;;;;;;;43.97;23.05;;;3.70;99.90;;;;;;5042461;28;20031;-77
2021/11/03 06:08:21;;;;;;;46.45;24.27;;;3.70;99.90;;;;;;5040673;28;20043;-75
2021/11/03 06:10:49;;;;;;;38.42;22.02;;;3.70;99.90;;;;;;5040989;28;20033;-76
2021/11/03 06:13:15;;;;;;;38.03;22.05;;;3.70;99.90;;;;;;5039132;28;20187;-77
2021/11/03 06:15:41;;;;;;;41.58;23.10;;;3.60;99.90;;;;;;5038336;28;20282;-77
2021/11/03 06:18:08;;;;;;;41.50;22.38;;;3.60;99.90;;;;;;5008914;28;20057;-78
2021/11/03 06:20:34;;;;;;;43.97;23.30;;;3.60;99.90;;;;;;5039486;28;20044;-76
2021/11/03 06:23:00;;;;;;;41.35;24.15;;;3.70;99.90;;;;;;5040833;28;20040;-77
2021/11/03 06:25:27;;;;;;;48.55;24.27;;;3.70;99.90;;;;;;5040585;28;20294;-76
2021/11/03 06:27:54;;;;;;;45.53;24.50;;;3.70;99.90;;;;;;5041312;28;20076;-76
2021/11/03 06:30:25;;;;;;;44.15;25.33;;;3.80;99.90;;;;;;5039806;28;20032;-77
2021/11/03 06:32:51;;;;;;;52.13;25.38;;;3.90;99.90;;;;;;5039959;28;20235;-76
2021/11/03 06:35:17;;;;;;;43.15;23.70;;;3.90;99.90;;;;;;5040957;28;20024;-77
2021/11/03 06:37:43;;;;;;;43.40;24.88;;;3.80;99.90;;;;;;5041633;28;20041;-76
2021/11/03 06:40:13;;;;;;;40.47;23.05;;;3.80;99.90;;;;;;5040949;28;20049;-78
2021/11/03 06:42:39;;;;;;;;;;;3.80;99.90;;;;;;5038582;28;20025;-78
2021/11/03 06:45:07;;;;;;;42.03;22.85;;;3.70;99.90;;;;;;5038457;23;19935;-71
2021/11/03 06:47:33;;;;;;;42.85;24.08;;;3.70;99.90;;;;;;4989782;28;20065;-71
2021/11/03 06:49:59;;;;;;;55.90;27.85;;;3.70;99.90;;;;;;5006787;28;20037;-71
2021/11/03 06:52:26;;;;;;;47.28;26.58;;;3.80;99.90;;;;;;5010122;28;20034;-72
2021/11/03 06:54:52;;;;;;;49.83;26.23;;;3.80;99.90;;;;;;5010031;28;20018;-71
2021/11/03 06:57:18;;;;;;;49.75;26.45;;;3.80;99.90;;;;;;5009150;28;20044;-71
2021/11/03 06:59:46;;;;;;;52.78;27.75;;;3.80;99.90;;;;;;5010799;28;20077;-72
2021/11/03 07:02:16;;;;;;;46.20;26.48;;;3.90;99.90;;;;;;5007536;28;20399;-71
2021/11/03 07:04:43;;;;;;;48.10;24.42;;;3.90;99.90;;;;;;5009551;28;20332;-71
2021/11/03 07:07:09;;;;;;;43.28;24.02;;;3.90;99.90;;;;;;5010021;28;20126;-71
2021/11/03 07:09:36;;;;;;;52.08;27.75;;;3.90;99.90;;;;;;5011183;28;20026;-71
2021/11/03 07:12:02;;;;;;;45.00;26.27;;;3.90;99.90;;;;;;5009878;28;20117;-71
2021/11/03 07:14:28;;;;;;;50.67;26.38;;;3.90;99.90;;;;;;5011642;28;20040;-71
2021/11/03 07:16:54;;;;;;;45.72;26.10;;;4.00;99.90;;;;;;5008473;28;20390;-72
2021/11/03 07:19:19;;;;;;;59.80;28.70;;;4.00;99.90;;;;;;5009754;28;20368;-71
2021/11/03 07:21:45;;;;;;;47.83;25.55;;;4.10;99.90;;;;;;5011098;28;20022;-71
2021/11/03 07:24:13;;;;;;;53.60;28.33;;;4.20;99.90;;;;;;5011591;28;20037;-71
2021/11/03 07:26:43;;;;;;;57.22;30.45;;;4.30;99.90;;;;;;5011379;28;20272;-71
2021/11/03 07:29:10;;;;;;;58.00;30.10;;;4.40;99.90;;;;;;5010061;28;20538;-71
2021/11/03 07:31:36;;;;;;;54.42;30.42;;;4.60;99.90;;;;;;5009978;28;20026;-71
2021/11/03 07:34:03;;;;;;;57.95;30.52;;;4.80;99.90;;;;;;5015122;28;20029;-71
2021/11/03 07:36:30;;;;;;;54.05;30.02;;;5.10;99.90;;;;;;5014629;28;20032;-71
2021/11/03 07:38:56;;;;;;;51.03;29.90;;;5.60;99.90;;;;;;5014685;28;20384;-72
2021/11/03 07:41:23;;;;;;;55.65;30.17;;;5.70;99.90;;;;;;5014712;28;20220;-71
2021/11/03 07:43:49;;;;;;;53.85;29.73;;;5.80;99.90;;;;;;4996775;28;20033;-72
2021/11/03 07:46:14;;;;;;;50.25;29.67;;;5.80;99.90;;;;;;5013863;28;20336;-72
2021/11/03 07:48:41;;;;;;;47.25;28.80;;;5.80;99.90;;;;;;5013910;28;20052;-72
2021/11/03 07:51:12;;;;;;;47.58;27.73;;;5.90;99.90;;;;;;5013890;28;20181;-71
2021/11/03 07:53:38;;;;;;;50.50;28.52;;;6.00;99.90;;;;;;5013675;28;20037;-71
2021/11/03 07:56:07;;;;;;;47.53;28.02;;;6.10;99.90;;;;;;5014052;28;20089;-72
2021/11/03 07:58:36;;;;;;;43.60;27.73;;;6.30;99.90;;;;;;5014153;28;20040;-71
2021/11/03 08:01:04;;;;;;;43.65;25.60;;;6.40;99.90;;;;;;5013906;28;20100;-71
2021/11/03 08:03:30;;;;;;;41.17;26.02;;;6.50;99.90;;;;;;5014813;28;20022;-72
2021/11/03 08:05:56;;;;;;;35.15;23.33;;;6.70;99.90;;;;;;5013139;28;20099;-71
2021/11/03 08:08:25;;;;;;;42.92;25.13;;;6.80;99.90;;;;;;5014078;28;20271;-71
2021/11/03 08:10:53;;;;;;;34.40;23.65;;;7.00;99.90;;;;;;5014244;28;20030;-72
2021/11/03 08:13:22;;;;;;;36.95;22.63;;;7.10;99.90;;;;;;5014087;28;20034;-72
2021/11/03 08:15:50;;;;;;;36.40;22.10;;;7.00;99.90;;;;;;5013864;28;20025;-71
2021/11/03 08:18:19;;;;;;;33.58;22.67;;;7.10;99.90;;;;;;5014540;28;20106;-71
2021/11/03 08:20:45;;;;;;;38.45;23.90;;;7.00;99.90;;;;;;4996540;28;20032;-71
2021/11/03 08:23:13;;;;;;;39.70;25.05;;;7.30;99.90;;;;;;5013610;28;20024;-71
2021/11/03 08:25:39;;;;;;;34.30;22.77;;;7.50;99.90;;;;;;5014235;28;20288;-71
2021/11/03 08:28:06;;;;;;;32.10;23.15;;;7.80;99.90;;;;;;5014235;28;20117;-72
2021/11/03 08:30:32;;;;;;;37.50;24.80;;;8.20;99.90;;;;;;5013420;28;20110;-72
2021/11/03 08:33:15;;;;;;;30.60;22.25;;;8.50;99.90;;;;;;5014141;28;20253;-72
2021/11/03 08:35:45;;;;;;;32.72;22.45;;;8.90;99.90;;;;;;5012813;28;20026;-72
2021/11/03 08:38:16;;;;;;;33.67;23.30;;;9.40;99.90;;;;;;5013094;28;20112;-72
2021/11/03 08:40:44;;;;;;;34.58;23.08;;;9.80;99.90;;;;;;5013908;28;20577;-72
2021/11/03 08:43:12;;;;;;;30.60;22.35;;;10.20;99.90;;;;;;5013697;28;20026;-72
2021/11/03 08:45:38;;;;;;;30.65;21.92;;;10.30;99.90;;;;;;5012136;28;20069;-72
2021/11/03 08:48:06;;;;;;;32.00;23.52;;;10.50;99.90;;;;;;5013638;28;20033;-72
2021/11/03 08:50:35;;;;;;;33.20;22.00;;;10.90;99.90;;;;;;5013157;28;20265;-72
2021/11/03 08:53:01;;;;;;;33.88;23.55;;;11.60;99.90;;;;;;5013827;28;20029;-72
2021/11/03 08:55:29;;;;;;;31.05;22.45;;;12.20;99.90;;;;;;4995383;28;20030;-72
2021/11/03 08:57:56;;;;;;;33.28;23.25;;;12.80;99.90;;;;;;5013498;28;20036;-72
2021/11/03 09:00:27;;;;;;;28.02;21.48;;;12.80;99.90;;;;;;5012950;28;20038;-72
2021/11/03 09:02:53;;;;;;;31.67;21.92;;;13.00;99.90;;;;;;5011229;28;20025;-72
2021/11/03 09:05:19;;;;;;;33.42;23.27;;;12.80;99.90;;;;;;5012760;28;20041;-72
2021/11/03 09:07:45;;;;;;;33.08;23.25;;;12.90;99.90;;;;;;5012559;28;20022;-72
2021/11/03 09:10:14;;;;;;;28.90;21.98;;;12.80;99.90;;;;;;5013399;28;20086;-72
2021/11/03 09:12:40;;;;;;;31.95;24.02;;;12.90;99.90;;;;;;5012190;28;20021;-72
2021/11/03 09:15:07;;;;;;;31.27;23.13;;;13.00;99.90;;;;;;5011923;28;20382;-71
2021/11/03 09:17:33;;;;;;;32.60;24.75;;;13.10;99.90;;;;;;5013276;28;20038;-71
2021/11/03 09:19:59;;;;;;;32.05;23.65;;;13.30;99.90;;;;;;5012916;28;20037;-72
2021/11/03 09:22:25;;;;;;;31.58;23.65;;;13.70;99.90;;;;;;5012783;28;20029;-72
2021/11/03 09:24:51;;;;;;;31.77;24.17;;;14.00;99.90;;;;;;5012890;28;20022;-71
2021/11/03 09:27:17;;;;;;;31.38;24.08;;;14.00;99.90;;;;;;5012024;28;20256;-71
2021/11/03 09:29:49;;;;;;;33.10;23.08;;;14.00;99.90;;;;;;5012288;28;20100;-72
2021/11/03 09:32:19;;;;;;;32.70;24.02;;;14.10;99.90;;;;;;5012159;28;20092;-72
2021/11/03 09:34:45;;;;;;;30.05;24.42;;;13.90;99.90;;;;;;5012950;28;20026;-71
2021/11/03 09:37:15;;;;;;;32.20;24.48;;;13.90;99.90;;;;;;5012802;28;20223;-71
2021/11/03 09:39:42;;;;;;;32.42;24.95;;;13.70;99.90;;;;;;5011419;28;20144;-71
2021/11/03 09:42:12;;;;;;;33.20;25.90;;;13.90;99.90;;;;;;5012203;28;20158;-71
2021/11/03 09:44:39;;;;;;;32.55;25.02;;;13.90;99.90;;;;;;5011956;28;20063;-71
2021/11/03 09:47:15;;;;;;;32.35;25.05;;;14.00;99.90;;;;;;5010993;28;20034;-71
2021/11/03 09:49:50;;;;;;;32.17;25.35;;;13.90;99.90;;;;;;5012458;28;20032;-71
2021/11/03 09:52:25;;;;;;;33.08;25.02;;;13.70;99.90;;;;;;5012695;28;20152;-71
2021/11/03 09:55:14;;;;;;;32.88;26.13;;;13.40;99.90;;;;;;5012200;28;20041;-71
2021/11/03 09:57:50;;;;;;;34.97;26.77;;;13.70;99.90;;;;;;5009677;28;20103;-71
2021/11/03 10:00:41;;;;;;;33.00;25.85;;;13.80;99.90;;;;;;5012010;28;20631;-71
2021/11/03 10:03:15;;;;;;;35.25;26.55;;;14.20;99.90;;;;;;5011102;28;20399;-72
2021/11/03 10:06:17;;;;;;;30.73;25.58;;;14.40;99.90;;;;;;5012484;28;20025;-72
2021/11/03 10:08:46;;;;;;;33.70;26.00;;;14.70;99.90;;;;;;5012069;28;20017;-72
2021/11/03 10:11:39;;;;;;;33.33;25.30;;;15.10;99.90;;;;;;5010914;28;20527;-72
2021/11/03 10:14:07;;;;;;;33.72;24.90;;;15.20;99.90;;;;;;5011654;28;20029;-72
2021/11/03 10:16:48;;;;;;;35.25;25.30;;;15.00;99.90;;;;;;5012126;28;20090;-72
2021/11/03 10:19:14;;;;;;;38.78;26.55;;;14.90;99.90;;;;;;5011260;28;20043;-71
2021/11/03 10:21:50;;;;;;;30.15;24.70;;;15.40;99.90;;;;;;4993751;28;20057;-71
2021/11/03 10:24:16;;;;;;;32.15;24.27;;;16.10;99.90;;;;;;5012249;28;20230;-71
2021/11/03 10:26:52;;;;;;;31.63;23.95;;;16.30;99.90;;;;;;5011571;28;20061;-71
2021/11/03 10:29:31;;;;;;;31.13;25.23;;;16.40;99.90;;;;;;5012269;28;20033;-71
2021/11/03 10:32:08;;;;;;;30.60;25.52;;;16.40;99.90;;;;;;5012096;28;20021;-71
2021/11/03 10:34:34;;;;;;;32.40;25.83;;;16.50;99.90;;;;;;5012464;28;20041;-71
2021/11/03 10:37:25;;;;;;;33.78;24.67;;;16.60;99.90;;;;;;5011577;28;20223;-72
2021/11/03 10:39:58;;;;;;;28.33;24.17;;;16.90;99.90;;;;;;5012274;28;20041;-71
2021/11/03 10:42:32;;;;;;;30.02;25.00;;;17.30;99.90;;;;;;5011489;28;20092;-71
2021/11/03 10:45:18;;;;;;;33.55;25.75;;;17.70;99.90;;;;;;5011086;28;20116;-71
2021/11/03 10:47:45;;;;;;;29.60;24.95;;;17.90;99.90;;;;;;5011538;28;20356;-71
2021/11/03 10:50:57;;;;;;;33.38;27.02;;;18.20;99.90;;;;;;5011432;28;20033;-71
2021/11/03 10:53:36;;;;;;;29.23;25.58;;;18.10;99.90;;;;;;5012372;28;20030;-71
2021/11/03 10:56:05;;;;;;;;;;;18.70;99.90;;;;;;5011552;28;20030;-71
2021/11/03 10:58:51;;;;;;;33.40;27.58;;;19.20;99.90;;;;;;5011588;28;20208;-70
2021/11/03 11:01:23;;;;;;;30.75;27.40;;;18.90;99.90;;;;;;4993809;28;20097;-71
2021/11/03 11:04:05;;;;;;;31.42;26.63;;;18.60;99.90;;;;;;5010271;28;20072;-71
2021/11/03 11:06:39;;;;;;;33.65;28.08;;;18.70;99.90;;;;;;5010053;28;20050;-70
2021/11/03 11:09:08;;;;;;;33.08;26.92;;;18.50;99.90;;;;;;5015416;28;20216;-71
2021/11/03 11:11:36;;;;;;;33.15;27.67;;;18.00;99.90;;;;;;4996948;28;20347;-71
2021/11/03 11:14:17;;;;;;;36.35;27.88;;;17.90;99.90;;;;;;5015369;28;20041;-71
2021/11/03 11:17:18;;;;;;;33.92;27.50;;;17.60;99.90;;;;;;5015339;28;20265;-71
2021/11/03 11:20:03;;;;;;;34.42;27.98;;;16.90;99.90;;;;;;5009727;28;20049;-71
2021/11/03 11:22:47;;;;;;;35.83;28.70;;;17.20;99.90;;;;;;5015381;28;20332;-72
2021/11/03 11:25:13;;;;;;;33.10;28.35;;;16.60;99.90;;;;;;5014286;28;20037;-72
2021/11/03 11:28:08;;;;;;;33.55;28.90;;;16.60;99.90;;;;;;5014970;28;20029;-72
2021/11/03 11:30:50;;;;;;;35.90;30.05;;;17.00;99.90;;;;;;4995222;28;20038;-71
2021/11/03 11:33:30;;;;;;;34.28;28.30;;;17.30;99.90;;;;;;5015268;28;20123;-71
2021/11/03 11:36:14;;;;;;;31.17;27.42;;;17.40;99.90;;;;;;5013556;28;20272;-71
2021/11/03 11:39:01;;;;;;;31.52;27.13;;;17.80;99.90;;;;;;5014744;28;20036;-71
2021/11/03 11:41:34;;;;;;;35.50;27.55;;;17.90;99.90;;;;;;4997535;28;20026;-71
2021/11/03 11:44:25;;;;;;;34.70;30.40;;;17.60;99.90;;;;;;5012396;28;20056;-71
2021/11/03 11:46:52;;;;;;;35.75;29.08;;;17.50;99.90;;;;;;5013233;28;20030;-71
2021/11/03 11:49:34;;;;;;;26.85;23.95;;;17.20;99.90;;;;;;5015121;28;20348;-71
2021/11/03 11:52:34;;;;;;;28.33;25.23;;;17.10;99.90;;;;;;5014944;28;20052;-71
2021/11/03 11:55:13;;;;;;;31.02;26.95;;;16.80;99.90;;;;;;5015028;28;20330;-72
2021/11/03 11:57:41;;;;;;;33.45;26.52;;;17.00;99.90;;;;;;4995847;28;20280;-72
2021/11/03 12:00:10;;;;;;;29.83;26.63;;;17.10;99.90;;;;;;5012827;28;20107;-72
2021/11/03 12:02:45;;;;;;;34.70;27.83;;;16.90;99.90;;;;;;5012815;28;20302;-72
2021/11/03 12:05:31;;;;;;;39.90;27.15;;;16.50;99.90;;;;;;5014666;28;20026;-72
2021/11/03 12:08:09;;;;;;;33.35;27.83;;;16.10;99.90;;;;;;5014307;28;20032;-72
2021/11/03 12:10:55;;;;;;;36.85;28.75;;;16.00;99.90;;;;;;5003837;28;20036;-72
2021/11/03 12:13:27;;;;;;;37.80;30.30;;;15.80;99.90;;;;;;4994439;28;20228;-72
2021/11/03 12:15:53;;;;;;;39.95;31.30;;;15.80;99.90;;;;;;4989676;28;20261;-72
2021/11/03 12:18:24;;;;;;;44.55;31.42;;;15.70;99.90;;;;;;5012340;28;20037;-72
2021/11/03 12:21:02;;;;;;;35.58;27.83;;;15.60;99.90;;;;;;5010719;28;20319;-72
2021/11/03 12:23:57;;;;;;;36.53;31.13;;;15.80;99.90;;;;;;5011665;28;20157;-72
2021/11/03 12:26:27;;;;;;;36.85;30.13;;;15.80;99.90;;;;;;4996043;28;20065;-71
2021/11/03 12:29:00;;;;;;;38.97;31.55;;;15.60;99.90;;;;;;5013019;28;20391;-71
2021/11/03 12:31:52;;;;;;;35.80;29.33;;;15.20;99.90;;;;;;5013758;28;20046;-72
2021/11/03 12:34:26;;;;;;;38.05;31.40;;;14.80;99.90;;;;;;5013079;28;20033;-72
2021/11/03 12:37:28;;;;;;;39.30;31.30;;;14.40;99.90;;;;;;5011318;28;20025;-72
2021/11/03 12:39:58;;;;;;;38.88;31.23;;;14.10;99.90;;;;;;5012518;28;20083;-72
2021/11/03 12:42:27;;;;;;;39.47;32.47;;;13.80;99.90;;;;;;5012630;28;20033;-73
2021/11/03 12:45:07;;;;;;;40.87;32.43;;;13.50;99.90;;;;;;5013129;28;20070;-73
2021/11/03 12:47:44;;;;;;;42.60;32.95;;;13.30;99.90;;;;;;5013776;28;20224;-73